KGVE

Gordonsville Municipal Airport

Gordonsville, Virginia, USA
METAR KGVE 230755Z AUTO 04005KT 5SM BR BKN004 OVC009 06/06 A3055 RMK AO1 P0001 T00570057
Observed Flight Rules
Feb-23 @ 07:55 UTC (35 minutes ago) Instrument Flight Rules
Wind Visibility Clouds Conditions
40° at 5 knots 5 miles
  • Broken at 400' AGL
  • Overcast at 900' AGL
  • Mist
Temperatures Readings Precipitation
Current 6°C / 43°F
Dewpoint 6°C / 43°F
Humidity 100%
Altimeter 30.55" Hg
Pressure 1035 hPa
Elevation 138
Current Rain 0.01
METAR KGVE 230755Z AUTO 04005KT 5SM BR BKN004 OVC009 06/06 A3055 RMK AO1 P0001 T00570057
Observed Flight Rules
Feb-23 @ 07:55 UTC
(35 minutes ago)
LIFR
Wind Visibility
40° at 5 knots 5 miles
Clouds
  • Broken at 400' AGL
  • Overcast at 900' AGL
Conditions
  • Mist
Temperature Dewpoint
6°C / 43°F 6°C / 43°F
Humidity Altimeter Pressure
100% 30.55" Hg 1035 hPa
Current Rain
0.01